sensor_id;sensor_type;location;lat;lon;timestamp;P1;durP1;ratioP1;P2;durP2;ratioP2
43435;SDS011;36399;51.444;-2.018;2022-11-15T00:00:51;3.47;;;1.30;;
43435;SDS011;36399;51.444;-2.018;2022-11-15T00:03:18;5.43;;;1.67;;
43435;SDS011;36399;51.444;-2.018;2022-11-15T00:05:49;5.70;;;1.30;;
43435;SDS011;36399;51.444;-2.018;2022-11-15T00:08:15;4.17;;;1.40;;
43435;SDS011;36399;51.444;-2.018;2022-11-15T00:10:41;5.93;;;1.53;;
43435;SDS011;36399;51.444;-2.018;2022-11-15T00:13:08;4.93;;;1.37;;
43435;SDS011;36399;51.444;-2.018;2022-11-15T00:15:36;2.63;;;0.80;;
43435;SDS011;36399;51.444;-2.018;2022-11-15T00:18:03;8.73;;;2.57;;
43435;SDS011;36399;51.444;-2.018;2022-11-15T00:20:30;4.23;;;1.10;;
43435;SDS011;36399;51.444;-2.018;2022-11-15T00:22:56;4.13;;;0.97;;
43435;SDS011;36399;51.444;-2.018;2022-11-15T00:25:22;3.00;;;1.20;;
43435;SDS011;36399;51.444;-2.018;2022-11-15T00:27:48;5.20;;;1.77;;
43435;SDS011;36399;51.444;-2.018;2022-11-15T00:30:14;5.83;;;1.23;;
43435;SDS011;36399;51.444;-2.018;2022-11-15T00:32:40;2.70;;;0.60;;
43435;SDS011;36399;51.444;-2.018;2022-11-15T00:35:06;5.07;;;0.80;;
43435;SDS011;36399;51.444;-2.018;2022-11-15T00:37:32;3.60;;;0.70;;
43435;SDS011;36399;51.444;-2.018;2022-11-15T00:39:58;7.40;;;1.33;;
43435;SDS011;36399;51.444;-2.018;2022-11-15T00:42:24;5.50;;;1.23;;
43435;SDS011;36399;51.444;-2.018;2022-11-15T00:44:50;5.27;;;1.50;;
43435;SDS011;36399;51.444;-2.018;2022-11-15T00:47:16;5.70;;;1.60;;
43435;SDS011;36399;51.444;-2.018;2022-11-15T00:49:42;5.67;;;2.30;;
43435;SDS011;36399;51.444;-2.018;2022-11-15T00:52:08;2.33;;;0.67;;
43435;SDS011;36399;51.444;-2.018;2022-11-15T00:54:34;3.13;;;1.03;;
43435;SDS011;36399;51.444;-2.018;2022-11-15T00:56:59;6.10;;;1.03;;
43435;SDS011;36399;51.444;-2.018;2022-11-15T00:59:25;4.73;;;1.03;;
43435;SDS011;36399;51.444;-2.018;2022-11-15T01:01:51;7.20;;;1.87;;
43435;SDS011;36399;51.444;-2.018;2022-11-15T01:04:17;3.97;;;1.00;;
43435;SDS011;36399;51.444;-2.018;2022-11-15T01:06:44;4.03;;;1.13;;
43435;SDS011;36399;51.444;-2.018;2022-11-15T01:09:10;5.50;;;1.27;;
43435;SDS011;36399;51.444;-2.018;2022-11-15T01:11:36;8.03;;;1.23;;
43435;SDS011;36399;51.444;-2.018;2022-11-15T01:14:02;5.97;;;1.20;;
43435;SDS011;36399;51.444;-2.018;2022-11-15T01:16:28;12.20;;;2.07;;
43435;SDS011;36399;51.444;-2.018;2022-11-15T01:18:54;6.80;;;1.27;;
43435;SDS011;36399;51.444;-2.018;2022-11-15T01:21:20;7.63;;;1.37;;
43435;SDS011;36399;51.444;-2.018;2022-11-15T01:23:46;4.40;;;1.10;;
43435;SDS011;36399;51.444;-2.018;2022-11-15T01:26:13;5.20;;;0.90;;
43435;SDS011;36399;51.444;-2.018;2022-11-15T01:28:40;7.33;;;1.53;;
43435;SDS011;36399;51.444;-2.018;2022-11-15T01:31:17;7.27;;;1.60;;
43435;SDS011;36399;51.444;-2.018;2022-11-15T01:33:45;6.73;;;0.93;;
43435;SDS011;36399;51.444;-2.018;2022-11-15T01:36:16;8.23;;;0.87;;
43435;SDS011;36399;51.444;-2.018;2022-11-15T01:38:44;5.10;;;1.07;;
43435;SDS011;36399;51.444;-2.018;2022-11-15T01:41:17;5.73;;;1.43;;
43435;SDS011;36399;51.444;-2.018;2022-11-15T01:43:46;6.93;;;1.40;;
43435;SDS011;36399;51.444;-2.018;2022-11-15T01:46:21;12.77;;;3.27;;
43435;SDS011;36399;51.444;-2.018;2022-11-15T01:49:02;7.77;;;1.30;;
43435;SDS011;36399;51.444;-2.018;2022-11-15T01:51:37;5.67;;;1.10;;
43435;SDS011;36399;51.444;-2.018;2022-11-15T01:54:04;3.80;;;0.90;;
43435;SDS011;36399;51.444;-2.018;2022-11-15T01:56:36;8.33;;;2.03;;
43435;SDS011;36399;51.444;-2.018;2022-11-15T01:59:06;7.00;;;1.20;;
43435;SDS011;36399;51.444;-2.018;2022-11-15T02:01:34;9.57;;;2.00;;
43435;SDS011;36399;51.444;-2.018;2022-11-15T02:04:08;6.97;;;1.30;;
43435;SDS011;36399;51.444;-2.018;2022-11-15T02:06:38;6.30;;;1.53;;
43435;SDS011;36399;51.444;-2.018;2022-11-15T02:09:06;3.80;;;0.90;;
43435;SDS011;36399;51.444;-2.018;2022-11-15T02:11:32;5.80;;;1.60;;
43435;SDS011;36399;51.444;-2.018;2022-11-15T02:13:59;5.90;;;1.27;;
43435;SDS011;36399;51.444;-2.018;2022-11-15T02:16:39;3.97;;;1.23;;
43435;SDS011;36399;51.444;-2.018;2022-11-15T02:30:45;9.33;;;2.10;;
43435;SDS011;36399;51.444;-2.018;2022-11-15T02:35:59;6.63;;;1.20;;
43435;SDS011;36399;51.444;-2.018;2022-11-15T02:38:40;7.73;;;1.30;;
43435;SDS011;36399;51.444;-2.018;2022-11-15T02:41:11;10.90;;;1.93;;
43435;SDS011;36399;51.444;-2.018;2022-11-15T02:43:43;5.55;;;2.10;;
43435;SDS011;36399;51.444;-2.018;2022-11-15T02:46:26;9.63;;;1.90;;
43435;SDS011;36399;51.444;-2.018;2022-11-15T02:49:25;4.50;;;1.30;;
43435;SDS011;36399;51.444;-2.018;2022-11-15T02:51:54;6.37;;;1.57;;
43435;SDS011;36399;51.444;-2.018;2022-11-15T02:54:22;8.90;;;1.83;;
43435;SDS011;36399;51.444;-2.018;2022-11-15T02:56:49;4.87;;;1.50;;
43435;SDS011;36399;51.444;-2.018;2022-11-15T02:59:38;8.33;;;1.63;;
43435;SDS011;36399;51.444;-2.018;2022-11-15T03:04:44;6.03;;;1.60;;
43435;SDS011;36399;51.444;-2.018;2022-11-15T03:15:00;8.63;;;1.83;;
43435;SDS011;36399;51.444;-2.018;2022-11-15T03:17:40;9.77;;;2.13;;
43435;SDS011;36399;51.444;-2.018;2022-11-15T03:20:12;5.17;;;1.33;;
43435;SDS011;36399;51.444;-2.018;2022-11-15T03:22:42;6.27;;;1.13;;
43435;SDS011;36399;51.444;-2.018;2022-11-15T03:25:13;8.60;;;1.30;;
43435;SDS011;36399;51.444;-2.018;2022-11-15T03:27:46;5.50;;;1.00;;
43435;SDS011;36399;51.444;-2.018;2022-11-15T03:30:16;5.90;;;1.10;;
43435;SDS011;36399;51.444;-2.018;2022-11-15T03:32:44;5.17;;;1.10;;
43435;SDS011;36399;51.444;-2.018;2022-11-15T03:35:17;3.90;;;1.33;;
43435;SDS011;36399;51.444;-2.018;2022-11-15T03:40:34;5.63;;;1.37;;
43435;SDS011;36399;51.444;-2.018;2022-11-15T03:43:07;6.20;;;1.43;;
43435;SDS011;36399;51.444;-2.018;2022-11-15T03:45:42;6.87;;;1.60;;
43435;SDS011;36399;51.444;-2.018;2022-11-15T03:48:16;4.10;;;1.30;;
43435;SDS011;36399;51.444;-2.018;2022-11-15T03:50:48;3.17;;;0.93;;
43435;SDS011;36399;51.444;-2.018;2022-11-15T03:53:14;5.03;;;1.10;;
43435;SDS011;36399;51.444;-2.018;2022-11-15T03:55:41;7.37;;;1.50;;
43435;SDS011;36399;51.444;-2.018;2022-11-15T03:58:07;3.57;;;1.20;;
43435;SDS011;36399;51.444;-2.018;2022-11-15T04:00:33;2.73;;;1.10;;
43435;SDS011;36399;51.444;-2.018;2022-11-15T04:02:59;6.00;;;2.53;;
43435;SDS011;36399;51.444;-2.018;2022-11-15T04:05:25;2.97;;;0.70;;
43435;SDS011;36399;51.444;-2.018;2022-11-15T04:07:51;2.53;;;0.90;;
43435;SDS011;36399;51.444;-2.018;2022-11-15T04:10:17;3.57;;;0.97;;
43435;SDS011;36399;51.444;-2.018;2022-11-15T04:12:43;3.17;;;1.00;;
43435;SDS011;36399;51.444;-2.018;2022-11-15T04:15:17;5.60;;;0.80;;
43435;SDS011;36399;51.444;-2.018;2022-11-15T04:17:48;2.10;;;0.90;;
43435;SDS011;36399;51.444;-2.018;2022-11-15T04:22:59;1.77;;;0.57;;
43435;SDS011;36399;51.444;-2.018;2022-11-15T04:25:44;3.90;;;0.83;;
43435;SDS011;36399;51.444;-2.018;2022-11-15T04:28:11;4.10;;;1.13;;
43435;SDS011;36399;51.444;-2.018;2022-11-15T04:30:37;5.10;;;0.87;;
43435;SDS011;36399;51.444;-2.018;2022-11-15T04:33:03;3.87;;;0.70;;
43435;SDS011;36399;51.444;-2.018;2022-11-15T04:35:29;1.30;;;0.60;;
43435;SDS011;36399;51.444;-2.018;2022-11-15T04:37:55;3.30;;;1.10;;
43435;SDS011;36399;51.444;-2.018;2022-11-15T04:40:23;3.70;;;0.80;;
43435;SDS011;36399;51.444;-2.018;2022-11-15T04:42:50;2.00;;;0.70;;
43435;SDS011;36399;51.444;-2.018;2022-11-15T04:45:16;0.80;;;0.33;;
43435;SDS011;36399;51.444;-2.018;2022-11-15T04:47:43;0.90;;;0.40;;
43435;SDS011;36399;51.444;-2.018;2022-11-15T04:50:10;3.87;;;0.70;;
43435;SDS011;36399;51.444;-2.018;2022-11-15T04:52:40;3.20;;;0.90;;
43435;SDS011;36399;51.444;-2.018;2022-11-15T04:55:15;4.80;;;0.77;;
43435;SDS011;36399;51.444;-2.018;2022-11-15T04:57:41;2.50;;;0.57;;
43435;SDS011;36399;51.444;-2.018;2022-11-15T05:00:08;3.30;;;0.60;;
43435;SDS011;36399;51.444;-2.018;2022-11-15T05:02:37;1.93;;;0.50;;
43435;SDS011;36399;51.444;-2.018;2022-11-15T05:05:21;1.83;;;0.60;;
43435;SDS011;36399;51.444;-2.018;2022-11-15T05:07:49;5.67;;;0.80;;
43435;SDS011;36399;51.444;-2.018;2022-11-15T05:10:14;3.30;;;0.53;;
43435;SDS011;36399;51.444;-2.018;2022-11-15T05:12:40;2.53;;;0.47;;
43435;SDS011;36399;51.444;-2.018;2022-11-15T05:15:06;1.10;;;0.50;;
43435;SDS011;36399;51.444;-2.018;2022-11-15T05:17:33;1.73;;;0.40;;
43435;SDS011;36399;51.444;-2.018;2022-11-15T05:19:59;1.20;;;0.50;;
43435;SDS011;36399;51.444;-2.018;2022-11-15T05:22:25;0.87;;;0.50;;
43435;SDS011;36399;51.444;-2.018;2022-11-15T05:24:52;0.77;;;0.30;;
43435;SDS011;36399;51.444;-2.018;2022-11-15T05:27:18;2.30;;;0.53;;
43435;SDS011;36399;51.444;-2.018;2022-11-15T05:29:44;2.97;;;0.70;;
43435;SDS011;36399;51.444;-2.018;2022-11-15T05:32:10;2.47;;;0.37;;
43435;SDS011;36399;51.444;-2.018;2022-11-15T05:34:37;1.57;;;0.47;;
43435;SDS011;36399;51.444;-2.018;2022-11-15T05:37:03;1.53;;;0.70;;
43435;SDS011;36399;51.444;-2.018;2022-11-15T05:39:29;1.57;;;0.50;;
43435;SDS011;36399;51.444;-2.018;2022-11-15T05:42:02;1.13;;;0.60;;
43435;SDS011;36399;51.444;-2.018;2022-11-15T05:44:35;2.47;;;0.80;;
43435;SDS011;36399;51.444;-2.018;2022-11-15T05:47:02;1.50;;;0.37;;
43435;SDS011;36399;51.444;-2.018;2022-11-15T05:49:31;2.47;;;0.60;;
43435;SDS011;36399;51.444;-2.018;2022-11-15T05:52:02;1.17;;;0.43;;
43435;SDS011;36399;51.444;-2.018;2022-11-15T05:54:30;3.03;;;0.60;;
43435;SDS011;36399;51.444;-2.018;2022-11-15T05:56:57;1.63;;;0.30;;
43435;SDS011;36399;51.444;-2.018;2022-11-15T05:59:23;2.30;;;0.80;;
43435;SDS011;36399;51.444;-2.018;2022-11-15T06:01:49;3.17;;;0.60;;
43435;SDS011;36399;51.444;-2.018;2022-11-15T06:04:15;1.80;;;0.30;;
43435;SDS011;36399;51.444;-2.018;2022-11-15T06:06:41;2.23;;;0.50;;
43435;SDS011;36399;51.444;-2.018;2022-11-15T06:09:07;4.73;;;0.83;;
43435;SDS011;36399;51.444;-2.018;2022-11-15T06:11:33;2.87;;;0.73;;
43435;SDS011;36399;51.444;-2.018;2022-11-15T06:13:59;2.00;;;0.53;;
43435;SDS011;36399;51.444;-2.018;2022-11-15T06:16:25;2.80;;;0.50;;
43435;SDS011;36399;51.444;-2.018;2022-11-15T06:18:51;2.13;;;0.80;;
43435;SDS011;36399;51.444;-2.018;2022-11-15T06:21:17;2.20;;;1.13;;
43435;SDS011;36399;51.444;-2.018;2022-11-15T06:23:43;1.43;;;0.80;;
43435;SDS011;36399;51.444;-2.018;2022-11-15T06:26:09;1.30;;;0.37;;
43435;SDS011;36399;51.444;-2.018;2022-11-15T06:28:35;1.70;;;0.60;;
43435;SDS011;36399;51.444;-2.018;2022-11-15T06:31:07;4.57;;;0.87;;
43435;SDS011;36399;51.444;-2.018;2022-11-15T06:33:36;1.67;;;0.60;;
43435;SDS011;36399;51.444;-2.018;2022-11-15T06:36:05;2.83;;;0.70;;
43435;SDS011;36399;51.444;-2.018;2022-11-15T06:38:35;2.80;;;0.70;;
43435;SDS011;36399;51.444;-2.018;2022-11-15T06:41:05;1.70;;;0.47;;
43435;SDS011;36399;51.444;-2.018;2022-11-15T06:43:35;2.90;;;0.63;;
43435;SDS011;36399;51.444;-2.018;2022-11-15T06:46:02;1.40;;;0.43;;
43435;SDS011;36399;51.444;-2.018;2022-11-15T06:48:29;1.50;;;0.57;;
43435;SDS011;36399;51.444;-2.018;2022-11-15T06:50:58;1.17;;;0.33;;
43435;SDS011;36399;51.444;-2.018;2022-11-15T06:53:25;1.60;;;0.50;;
43435;SDS011;36399;51.444;-2.018;2022-11-15T06:55:51;3.53;;;0.83;;
43435;SDS011;36399;51.444;-2.018;2022-11-15T06:58:18;3.13;;;0.80;;
43435;SDS011;36399;51.444;-2.018;2022-11-15T07:00:44;5.97;;;0.77;;
43435;SDS011;36399;51.444;-2.018;2022-11-15T07:03:10;1.87;;;0.60;;
43435;SDS011;36399;51.444;-2.018;2022-11-15T07:05:36;6.40;;;0.77;;
43435;SDS011;36399;51.444;-2.018;2022-11-15T07:08:02;3.33;;;0.83;;
43435;SDS011;36399;51.444;-2.018;2022-11-15T07:10:29;1.13;;;0.77;;
43435;SDS011;36399;51.444;-2.018;2022-11-15T07:12:55;1.93;;;0.90;;
43435;SDS011;36399;51.444;-2.018;2022-11-15T07:15:24;4.63;;;1.00;;
43435;SDS011;36399;51.444;-2.018;2022-11-15T07:17:51;1.47;;;0.40;;
43435;SDS011;36399;51.444;-2.018;2022-11-15T07:20:17;2.87;;;0.60;;
43435;SDS011;36399;51.444;-2.018;2022-11-15T07:22:43;1.53;;;0.40;;
43435;SDS011;36399;51.444;-2.018;2022-11-15T07:25:12;3.00;;;0.60;;
43435;SDS011;36399;51.444;-2.018;2022-11-15T07:27:38;3.83;;;1.20;;
43435;SDS011;36399;51.444;-2.018;2022-11-15T07:30:05;9.30;;;2.30;;
43435;SDS011;36399;51.444;-2.018;2022-11-15T07:32:31;2.23;;;0.60;;
43435;SDS011;36399;51.444;-2.018;2022-11-15T07:34:57;4.63;;;0.60;;
43435;SDS011;36399;51.444;-2.018;2022-11-15T07:37:23;3.60;;;0.90;;
43435;SDS011;36399;51.444;-2.018;2022-11-15T07:39:49;1.20;;;0.60;;
43435;SDS011;36399;51.444;-2.018;2022-11-15T07:42:15;1.87;;;0.40;;
43435;SDS011;36399;51.444;-2.018;2022-11-15T07:44:59;3.07;;;0.57;;
43435;SDS011;36399;51.444;-2.018;2022-11-15T07:47:25;2.20;;;0.77;;
43435;SDS011;36399;51.444;-2.018;2022-11-15T07:49:54;2.00;;;0.80;;
43435;SDS011;36399;51.444;-2.018;2022-11-15T07:52:20;2.53;;;0.70;;
43435;SDS011;36399;51.444;-2.018;2022-11-15T07:54:46;3.33;;;0.50;;
43435;SDS011;36399;51.444;-2.018;2022-11-15T07:57:12;1.07;;;0.33;;
43435;SDS011;36399;51.444;-2.018;2022-11-15T07:59:38;1.77;;;0.57;;
43435;SDS011;36399;51.444;-2.018;2022-11-15T08:02:04;2.10;;;0.30;;
43435;SDS011;36399;51.444;-2.018;2022-11-15T08:04:32;1.50;;;0.30;;
43435;SDS011;36399;51.444;-2.018;2022-11-15T08:06:58;2.07;;;0.40;;
43435;SDS011;36399;51.444;-2.018;2022-11-15T08:09:24;2.70;;;0.60;;
43435;SDS011;36399;51.444;-2.018;2022-11-15T08:11:50;2.50;;;0.50;;
43435;SDS011;36399;51.444;-2.018;2022-11-15T08:14:16;1.13;;;0.40;;
43435;SDS011;36399;51.444;-2.018;2022-11-15T08:16:42;1.93;;;0.50;;
43435;SDS011;36399;51.444;-2.018;2022-11-15T08:19:08;3.07;;;0.70;;
43435;SDS011;36399;51.444;-2.018;2022-11-15T08:21:34;1.10;;;0.30;;
43435;SDS011;36399;51.444;-2.018;2022-11-15T08:24:00;0.93;;;0.20;;
43435;SDS011;36399;51.444;-2.018;2022-11-15T08:26:26;1.40;;;0.20;;
43435;SDS011;36399;51.444;-2.018;2022-11-15T08:28:54;0.30;;;0.20;;
43435;SDS011;36399;51.444;-2.018;2022-11-15T08:31:20;0.93;;;0.43;;
43435;SDS011;36399;51.444;-2.018;2022-11-15T08:33:46;1.80;;;0.20;;
43435;SDS011;36399;51.444;-2.018;2022-11-15T08:36:13;2.63;;;0.43;;
43435;SDS011;36399;51.444;-2.018;2022-11-15T08:38:40;0.70;;;0.37;;
43435;SDS011;36399;51.444;-2.018;2022-11-15T08:41:06;3.10;;;0.30;;
43435;SDS011;36399;51.444;-2.018;2022-11-15T08:43:32;1.43;;;0.27;;
43435;SDS011;36399;51.444;-2.018;2022-11-15T08:45:58;0.80;;;0.20;;
43435;SDS011;36399;51.444;-2.018;2022-11-15T08:48:24;2.10;;;0.33;;
43435;SDS011;36399;51.444;-2.018;2022-11-15T08:50:54;0.67;;;0.20;;
43435;SDS011;36399;51.444;-2.018;2022-11-15T08:53:21;1.07;;;0.30;;
43435;SDS011;36399;51.444;-2.018;2022-11-15T08:55:47;0.83;;;0.20;;
43435;SDS011;36399;51.444;-2.018;2022-11-15T08:58:13;2.43;;;0.53;;
43435;SDS011;36399;51.444;-2.018;2022-11-15T09:00:39;0.30;;;0.20;;
43435;SDS011;36399;51.444;-2.018;2022-11-15T09:03:05;2.63;;;0.20;;
43435;SDS011;36399;51.444;-2.018;2022-11-15T09:05:37;0.97;;;0.30;;
43435;SDS011;36399;51.444;-2.018;2022-11-15T09:08:03;1.63;;;0.50;;
43435;SDS011;36399;51.444;-2.018;2022-11-15T09:10:29;2.10;;;0.40;;
43435;SDS011;36399;51.444;-2.018;2022-11-15T09:12:58;1.90;;;0.30;;
43435;SDS011;36399;51.444;-2.018;2022-11-15T09:15:24;2.47;;;0.20;;
43435;SDS011;36399;51.444;-2.018;2022-11-15T09:17:50;1.60;;;0.20;;
43435;SDS011;36399;51.444;-2.018;2022-11-15T09:20:16;5.40;;;0.57;;
43435;SDS011;36399;51.444;-2.018;2022-11-15T09:22:42;2.43;;;0.30;;
43435;SDS011;36399;51.444;-2.018;2022-11-15T09:25:08;1.33;;;0.30;;
43435;SDS011;36399;51.444;-2.018;2022-11-15T09:27:34;1.90;;;0.40;;
43435;SDS011;36399;51.444;-2.018;2022-11-15T09:30:00;1.00;;;0.63;;
43435;SDS011;36399;51.444;-2.018;2022-11-15T09:32:29;1.50;;;0.40;;
43435;SDS011;36399;51.444;-2.018;2022-11-15T09:34:56;1.20;;;0.40;;
43435;SDS011;36399;51.444;-2.018;2022-11-15T09:37:21;1.83;;;0.60;;
43435;SDS011;36399;51.444;-2.018;2022-11-15T09:39:47;1.23;;;0.70;;
43435;SDS011;36399;51.444;-2.018;2022-11-15T09:45:32;2.40;;;0.47;;
43435;SDS011;36399;51.444;-2.018;2022-11-15T09:50:56;2.20;;;0.30;;
43435;SDS011;36399;51.444;-2.018;2022-11-15T09:53:26;2.33;;;0.57;;
43435;SDS011;36399;51.444;-2.018;2022-11-15T09:55:59;4.30;;;0.60;;
43435;SDS011;36399;51.444;-2.018;2022-11-15T09:58:33;1.03;;;0.40;;
43435;SDS011;36399;51.444;-2.018;2022-11-15T10:01:08;3.90;;;0.40;;
43435;SDS011;36399;51.444;-2.018;2022-11-15T10:03:41;2.87;;;0.30;;
43435;SDS011;36399;51.444;-2.018;2022-11-15T10:06:09;2.93;;;0.50;;
43435;SDS011;36399;51.444;-2.018;2022-11-15T10:08:53;3.97;;;0.40;;
43435;SDS011;36399;51.444;-2.018;2022-11-15T10:11:31;2.50;;;0.47;;
43435;SDS011;36399;51.444;-2.018;2022-11-15T10:14:01;0.57;;;0.20;;
43435;SDS011;36399;51.444;-2.018;2022-11-15T10:16:36;2.97;;;0.93;;
43435;SDS011;36399;51.444;-2.018;2022-11-15T10:24:39;1.53;;;0.43;;
43435;SDS011;36399;51.444;-2.018;2022-11-15T10:27:09;3.00;;;0.30;;
43435;SDS011;36399;51.444;-2.018;2022-11-15T10:29:49;1.73;;;0.20;;
43435;SDS011;36399;51.444;-2.018;2022-11-15T10:32:17;2.43;;;0.27;;
43435;SDS011;36399;51.444;-2.018;2022-11-15T10:34:45;2.47;;;0.50;;
43435;SDS011;36399;51.444;-2.018;2022-11-15T10:37:12;1.67;;;0.47;;
43435;SDS011;36399;51.444;-2.018;2022-11-15T10:39:37;1.03;;;0.40;;
43435;SDS011;36399;51.444;-2.018;2022-11-15T10:44:52;1.57;;;0.30;;
43435;SDS011;36399;51.444;-2.018;2022-11-15T10:47:28;0.20;;;0.20;;
43435;SDS011;36399;51.444;-2.018;2022-11-15T10:50:07;0.00;;;0.00;;
43435;SDS011;36399;51.444;-2.018;2022-11-15T10:52:51;0.00;;;0.00;;
43435;SDS011;36399;51.444;-2.018;2022-11-15T10:55:21;0.00;;;0.00;;
43435;SDS011;36399;51.444;-2.018;2022-11-15T10:57:54;0.00;;;0.00;;
43435;SDS011;36399;51.444;-2.018;2022-11-15T11:00:37;0.17;;;0.17;;
43435;SDS011;36399;51.444;-2.018;2022-11-15T11:06:15;0.00;;;0.00;;
43435;SDS011;36399;51.444;-2.018;2022-11-15T11:11:20;1.50;;;0.93;;
43435;SDS011;36399;51.444;-2.018;2022-11-15T11:13:46;0.00;;;0.00;;
43435;SDS011;36399;51.444;-2.018;2022-11-15T11:16:20;0.00;;;0.00;;
43435;SDS011;36399;51.444;-2.018;2022-11-15T11:24:14;0.00;;;0.00;;
43435;SDS011;36399;51.444;-2.018;2022-11-15T11:32:37;0.00;;;0.00;;
43435;SDS011;36399;51.444;-2.018;2022-11-15T11:41:30;0.00;;;0.00;;
43435;SDS011;36399;51.444;-2.018;2022-11-15T11:47:12;0.00;;;0.00;;
43435;SDS011;36399;51.444;-2.018;2022-11-15T12:00:02;0.10;;;0.10;;
43435;SDS011;36399;51.444;-2.018;2022-11-15T12:02:39;0.00;;;0.00;;
43435;SDS011;36399;51.444;-2.018;2022-11-15T12:05:17;0.00;;;0.00;;
43435;SDS011;36399;51.444;-2.018;2022-11-15T12:07:53;0.03;;;0.00;;
43435;SDS011;36399;51.444;-2.018;2022-11-15T12:10:26;0.00;;;0.00;;
43435;SDS011;36399;51.444;-2.018;2022-11-15T12:12:58;0.60;;;0.60;;
43435;SDS011;36399;51.444;-2.018;2022-11-15T12:15:42;0.30;;;0.30;;
43435;SDS011;36399;51.444;-2.018;2022-11-15T12:18:13;0.00;;;0.00;;
43435;SDS011;36399;51.444;-2.018;2022-11-15T12:20:46;0.00;;;0.00;;
43435;SDS011;36399;51.444;-2.018;2022-11-15T12:23:26;0.00;;;0.00;;
43435;SDS011;36399;51.444;-2.018;2022-11-15T12:26:08;0.03;;;0.03;;
43435;SDS011;36399;51.444;-2.018;2022-11-15T12:28:42;0.00;;;0.00;;
43435;SDS011;36399;51.444;-2.018;2022-11-15T12:33:49;0.22;;;0.22;;
43435;SDS011;36399;51.444;-2.018;2022-11-15T12:38:53;0.00;;;0.00;;
43435;SDS011;36399;51.444;-2.018;2022-11-15T12:41:27;0.00;;;0.00;;
43435;SDS011;36399;51.444;-2.018;2022-11-15T12:49:23;3.50;;;1.20;;
43435;SDS011;36399;51.444;-2.018;2022-11-15T13:02:37;5.57;;;0.93;;
43435;SDS011;36399;51.444;-2.018;2022-11-15T13:08:03;2.37;;;0.60;;
43435;SDS011;36399;51.444;-2.018;2022-11-15T13:10:30;5.30;;;1.03;;
43435;SDS011;36399;51.444;-2.018;2022-11-15T13:15:31;3.23;;;1.13;;
43435;SDS011;36399;51.444;-2.018;2022-11-15T13:17:58;2.93;;;0.90;;
43435;SDS011;36399;51.444;-2.018;2022-11-15T13:20:26;6.43;;;1.70;;
43435;SDS011;36399;51.444;-2.018;2022-11-15T13:28:37;4.40;;;0.83;;
43435;SDS011;36399;51.444;-2.018;2022-11-15T13:36:39;1.87;;;0.50;;
43435;SDS011;36399;51.444;-2.018;2022-11-15T13:39:06;7.33;;;0.80;;
43435;SDS011;36399;51.444;-2.018;2022-11-15T13:41:47;4.83;;;0.87;;
43435;SDS011;36399;51.444;-2.018;2022-11-15T13:44:19;5.00;;;1.27;;
43435;SDS011;36399;51.444;-2.018;2022-11-15T13:46:46;5.70;;;1.83;;
43435;SDS011;36399;51.444;-2.018;2022-11-15T13:49:12;2.60;;;0.97;;
43435;SDS011;36399;51.444;-2.018;2022-11-15T13:54:26;7.40;;;1.03;;
43435;SDS011;36399;51.444;-2.018;2022-11-15T13:57:02;7.23;;;1.60;;
43435;SDS011;36399;51.444;-2.018;2022-11-15T13:59:31;4.13;;;1.03;;
43435;SDS011;36399;51.444;-2.018;2022-11-15T14:02:14;4.00;;;0.90;;
43435;SDS011;36399;51.444;-2.018;2022-11-15T14:04:48;1.70;;;0.70;;
43435;SDS011;36399;51.444;-2.018;2022-11-15T14:09:44;4.00;;;1.33;;
43435;SDS011;36399;51.444;-2.018;2022-11-15T14:12:25;7.97;;;2.87;;
43435;SDS011;36399;51.444;-2.018;2022-11-15T14:17:42;5.37;;;1.07;;
43435;SDS011;36399;51.444;-2.018;2022-11-15T14:22:52;7.37;;;1.90;;
43435;SDS011;36399;51.444;-2.018;2022-11-15T14:25:21;5.70;;;1.63;;
43435;SDS011;36399;51.444;-2.018;2022-11-15T14:28:08;7.53;;;1.47;;
43435;SDS011;36399;51.444;-2.018;2022-11-15T14:30:36;3.80;;;1.13;;
43435;SDS011;36399;51.444;-2.018;2022-11-15T14:35:50;5.47;;;2.27;;
43435;SDS011;36399;51.444;-2.018;2022-11-15T14:38:18;5.50;;;1.30;;
43435;SDS011;36399;51.444;-2.018;2022-11-15T14:40:44;6.00;;;1.70;;
43435;SDS011;36399;51.444;-2.018;2022-11-15T14:43:11;9.23;;;2.13;;
43435;SDS011;36399;51.444;-2.018;2022-11-15T14:45:37;5.07;;;1.73;;
43435;SDS011;36399;51.444;-2.018;2022-11-15T14:48:04;3.90;;;2.20;;
43435;SDS011;36399;51.444;-2.018;2022-11-15T14:50:31;6.67;;;1.80;;
43435;SDS011;36399;51.444;-2.018;2022-11-15T14:52:58;7.13;;;2.00;;
43435;SDS011;36399;51.444;-2.018;2022-11-15T14:55:26;4.57;;;1.63;;
43435;SDS011;36399;51.444;-2.018;2022-11-15T14:57:57;11.85;;;2.30;;
43435;SDS011;36399;51.444;-2.018;2022-11-15T15:00:24;7.80;;;2.70;;
43435;SDS011;36399;51.444;-2.018;2022-11-15T15:02:52;8.03;;;2.73;;
43435;SDS011;36399;51.444;-2.018;2022-11-15T15:05:26;4.67;;;2.53;;
43435;SDS011;36399;51.444;-2.018;2022-11-15T15:07:59;6.97;;;2.00;;
43435;SDS011;36399;51.444;-2.018;2022-11-15T15:10:26;6.50;;;1.90;;
43435;SDS011;36399;51.444;-2.018;2022-11-15T15:12:56;6.13;;;1.73;;
43435;SDS011;36399;51.444;-2.018;2022-11-15T15:15:25;5.33;;;1.90;;
43435;SDS011;36399;51.444;-2.018;2022-11-15T15:17:56;5.50;;;2.03;;
43435;SDS011;36399;51.444;-2.018;2022-11-15T15:20:22;5.93;;;2.87;;
43435;SDS011;36399;51.444;-2.018;2022-11-15T15:22:48;6.80;;;2.13;;
43435;SDS011;36399;51.444;-2.018;2022-11-15T15:25:22;5.97;;;3.17;;
43435;SDS011;36399;51.444;-2.018;2022-11-15T15:27:58;8.47;;;2.13;;
43435;SDS011;36399;51.444;-2.018;2022-11-15T15:30:25;3.83;;;2.30;;
43435;SDS011;36399;51.444;-2.018;2022-11-15T15:32:53;5.70;;;3.63;;
43435;SDS011;36399;51.444;-2.018;2022-11-15T15:35:19;7.83;;;3.10;;
43435;SDS011;36399;51.444;-2.018;2022-11-15T15:37:46;8.17;;;3.37;;
43435;SDS011;36399;51.444;-2.018;2022-11-15T15:40:14;4.10;;;1.40;;
43435;SDS011;36399;51.444;-2.018;2022-11-15T15:42:41;8.00;;;2.13;;
43435;SDS011;36399;51.444;-2.018;2022-11-15T15:45:07;5.83;;;1.70;;
43435;SDS011;36399;51.444;-2.018;2022-11-15T15:47:34;5.33;;;1.80;;
43435;SDS011;36399;51.444;-2.018;2022-11-15T15:50:00;7.10;;;1.53;;
43435;SDS011;36399;51.444;-2.018;2022-11-15T15:52:26;4.30;;;1.57;;
43435;SDS011;36399;51.444;-2.018;2022-11-15T15:54:52;8.20;;;1.23;;
43435;SDS011;36399;51.444;-2.018;2022-11-15T15:57:18;5.83;;;1.00;;
43435;SDS011;36399;51.444;-2.018;2022-11-15T15:59:44;2.63;;;0.63;;
43435;SDS011;36399;51.444;-2.018;2022-11-15T16:02:13;5.13;;;1.20;;
43435;SDS011;36399;51.444;-2.018;2022-11-15T16:04:40;6.07;;;1.30;;
43435;SDS011;36399;51.444;-2.018;2022-11-15T16:07:07;4.77;;;1.40;;
43435;SDS011;36399;51.444;-2.018;2022-11-15T16:09:41;3.63;;;1.30;;
43435;SDS011;36399;51.444;-2.018;2022-11-15T16:12:26;1.23;;;0.70;;
43435;SDS011;36399;51.444;-2.018;2022-11-15T16:14:57;7.13;;;2.30;;
43435;SDS011;36399;51.444;-2.018;2022-11-15T16:17:27;2.50;;;0.60;;
43435;SDS011;36399;51.444;-2.018;2022-11-15T16:19:58;2.40;;;0.83;;
43435;SDS011;36399;51.444;-2.018;2022-11-15T16:22:23;2.67;;;0.50;;
43435;SDS011;36399;51.444;-2.018;2022-11-15T16:24:49;3.83;;;0.90;;
43435;SDS011;36399;51.444;-2.018;2022-11-15T16:27:16;2.03;;;1.13;;
43435;SDS011;36399;51.444;-2.018;2022-11-15T16:29:44;2.90;;;1.10;;
43435;SDS011;36399;51.444;-2.018;2022-11-15T16:32:10;4.37;;;2.30;;
43435;SDS011;36399;51.444;-2.018;2022-11-15T16:34:37;5.87;;;1.70;;
43435;SDS011;36399;51.444;-2.018;2022-11-15T16:37:03;6.87;;;1.77;;
43435;SDS011;36399;51.444;-2.018;2022-11-15T16:39:29;5.23;;;1.37;;
43435;SDS011;36399;51.444;-2.018;2022-11-15T16:41:57;2.43;;;1.30;;
43435;SDS011;36399;51.444;-2.018;2022-11-15T16:44:23;2.43;;;0.83;;
43435;SDS011;36399;51.444;-2.018;2022-11-15T16:46:49;2.80;;;1.83;;
43435;SDS011;36399;51.444;-2.018;2022-11-15T16:49:19;3.30;;;0.87;;
43435;SDS011;36399;51.444;-2.018;2022-11-15T16:51:46;5.73;;;1.00;;
43435;SDS011;36399;51.444;-2.018;2022-11-15T16:54:13;1.83;;;0.73;;
43435;SDS011;36399;51.444;-2.018;2022-11-15T16:56:40;2.37;;;0.80;;